Time;durP1;ratioP1;P1;durP2;ratioP2;P2;SDS_P1;SDS_P2;PMS_P1;PMS_P2;Temp;Humidity;BMP_temperature;BMP_pressure;BME280_temperature;BME280_humidity;BME280_pressure;Samples;Min_cycle;Max_cycle;Signal;HPM_P1;HPM_P2
2021/07/06 00:00:15;;;;;;;6.90;5.80;;;;;;;17.03;88.59;100148.78;127608;1092;63048;-80
2021/07/06 00:02:43;;;;;;;7.87;5.50;;;;;;;17.06;88.55;100150.98;127601;1093;62261;-80
2021/07/06 00:05:12;;;;;;;7.60;5.73;;;;;;;17.10;88.17;100144.11;127888;1093;62724;-80
2021/07/06 00:07:39;;;;;;;7.65;6.20;;;;;;;17.15;88.14;100151.48;127517;1091;64089;-79
2021/07/06 00:10:08;;;;;;;6.80;5.05;;;;;;;17.21;87.79;100139.00;126736;1092;64285;-80
2021/07/06 00:12:36;;;;;;;8.03;5.60;;;;;;;17.25;87.88;100130.26;125458;1092;64284;-80
2021/07/06 00:15:05;;;;;;;7.63;5.97;;;;;;;17.30;87.64;100129.59;125299;1093;64307;-80
2021/07/06 00:17:32;;;;;;;6.83;4.63;;;;;;;17.33;87.56;100131.78;125576;1093;64237;-80
2021/07/06 00:20:00;;;;;;;6.97;5.03;;;;;;;17.37;87.20;100122.23;125082;1093;65860;-81
2021/07/06 00:22:27;;;;;;;5.87;5.10;;;;;;;17.41;87.11;100117.22;125088;1092;64300;-81
2021/07/06 00:24:54;;;;;;;6.47;5.07;;;;;;;17.43;87.07;100115.94;124969;1093;64658;-83
2021/07/06 00:27:21;;;;;;;5.83;3.87;;;;;;;17.46;87.05;100118.14;125151;1093;64246;-79
2021/07/06 00:29:48;;;;;;;8.43;5.37;;;;;;;17.47;86.97;100122.46;125086;1093;64225;-80
2021/07/06 00:32:15;;;;;;;5.25;4.70;;;;;;;17.49;86.93;100115.00;125056;1093;64233;-80
2021/07/06 00:34:42;;;;;;;6.17;5.57;;;;;;;17.51;86.86;100122.79;125068;1093;64288;-80
2021/07/06 00:37:09;;;;;;;3.93;3.53;;;;;;;17.50;87.06;100118.49;124988;1093;64310;-78
2021/07/06 00:39:36;;;;;;;7.07;5.03;;;;;;;17.50;86.99;100116.62;124971;1093;64792;-79
2021/07/06 00:42:08;;;;;;;5.75;3.95;;;;;;;17.50;87.09;100129.22;124913;1093;64272;-80
2021/07/06 00:44:36;;;;;;;8.77;5.67;;;;;;;17.50;86.95;100121.17;125008;1092;64444;-77
2021/07/06 00:47:04;;;;;;;5.00;4.40;;;;;;;17.51;87.11;100125.47;124895;1093;64275;-79
2021/07/06 00:49:32;;;;;;;8.50;5.03;;;;;;;17.55;87.20;100126.63;125253;1093;65512;-78
2021/07/06 00:51:59;;;;;;;11.00;5.77;;;;;;;17.58;86.93;100128.06;125066;1092;64560;-79
2021/07/06 00:54:26;;;;;;;8.33;5.13;;;;;;;17.58;86.97;100120.02;124958;1093;64368;-79
2021/07/06 00:56:53;;;;;;;7.73;5.43;;;;;;;17.59;86.79;100122.44;125043;1092;64302;-78
2021/07/06 00:59:23;;;;;;;7.30;5.20;;;;;;;17.59;86.97;100113.58;125118;1093;64326;-79
2021/07/06 01:01:50;;;;;;;5.03;4.20;;;;;;;17.59;87.03;100114.39;125016;1093;64285;-79
2021/07/06 01:04:18;;;;;;;6.37;5.03;;;;;;;17.59;86.94;100110.90;125152;1092;64326;-81
2021/07/06 01:06:45;;;;;;;10.03;4.97;;;;;;;17.56;86.91;100109.51;125294;1093;64284;-78
2021/07/06 01:09:12;;;;;;;6.97;5.33;;;;;;;17.55;87.30;100112.42;125055;1093;64417;-79
2021/07/06 01:11:39;;;;;;;7.97;4.97;;;;;;;17.55;87.30;100109.73;125056;1092;64285;-79
2021/07/06 01:14:06;;;;;;;6.47;5.10;;;;;;;17.53;87.12;100113.48;125139;1093;64329;-79
2021/07/06 01:16:33;;;;;;;7.80;5.13;;;;;;;17.55;87.22;100112.42;125000;1092;64393;-79
2021/07/06 01:19:01;;;;;;;7.00;5.00;;;;;;;17.53;87.37;100100.08;125157;1093;64301;-80
2021/07/06 01:21:28;;;;;;;19.33;7.80;;;;;;;17.55;87.22;100096.33;124919;1093;64427;-80
2021/07/06 01:23:55;;;;;;;10.20;5.20;;;;;;;17.53;87.18;100097.39;124904;1092;64428;-79
2021/07/06 01:26:24;;;;;;;7.07;5.27;;;;;;;17.50;87.13;100100.53;125346;1093;64335;-80
2021/07/06 01:28:52;;;;;;;7.07;4.60;;;;;;;17.48;87.29;100094.58;125131;1093;64277;-79
2021/07/06 01:31:19;;;;;;;9.55;6.05;;;;;;;17.47;87.37;100090.28;125050;1091;64284;-79
2021/07/06 01:33:46;;;;;;;9.13;5.53;;;;;;;17.46;87.61;100087.83;124981;1092;64422;-79
2021/07/06 01:36:16;;;;;;;11.77;5.53;;;;;;;17.45;87.64;100094.26;124946;1093;64300;-78
2021/07/06 01:38:43;;;;;;;6.65;5.25;;;;;;;17.43;87.53;100094.48;125074;1092;64282;-79
2021/07/06 01:41:10;;;;;;;5.63;4.27;;;;;;;17.44;87.73;100085.38;125216;1093;64284;-78
2021/07/06 01:43:38;;;;;;;10.30;4.77;;;;;;;17.46;87.74;100082.47;125129;1093;64964;-79
2021/07/06 01:46:05;;;;;;;8.03;4.20;;;;;;;17.46;87.73;100075.23;125204;1092;64300;-78
2021/07/06 01:48:32;;;;;;;7.63;4.97;;;;;;;17.46;87.65;100061.02;125249;1092;65431;-79
2021/07/06 01:50:59;;;;;;;6.97;4.90;;;;;;;17.44;87.76;100063.92;125105;1092;64284;-78
2021/07/06 01:53:26;;;;;;;9.70;4.60;;;;;;;17.43;87.69;100062.31;125130;1092;64298;-78
2021/07/06 01:55:54;;;;;;;7.20;4.60;;;;;;;17.39;87.80;100063.83;125053;1093;64394;-78
2021/07/06 01:58:23;;;;;;;6.20;3.90;;;;;;;17.39;87.88;100058.47;125126;1093;64254;-78
2021/07/06 02:00:56;;;;;;;5.27;4.63;;;;;;;17.37;88.04;100063.25;125175;1092;64301;-78
2021/07/06 02:03:23;;;;;;;7.30;5.10;;;;;;;17.34;88.12;100050.33;125045;1092;64377;-78
2021/07/06 02:05:58;;;;;;;5.80;3.93;;;;;;;17.32;88.48;100045.19;124990;1093;64393;-78
2021/07/06 02:08:26;;;;;;;5.93;4.33;;;;;;;17.30;88.55;100046.48;125328;1092;64313;-78
2021/07/06 02:10:55;;;;;;;6.80;4.60;;;;;;;17.27;88.67;100041.58;125089;1093;64313;-78
2021/07/06 02:13:24;;;;;;;4.70;4.20;;;;;;;17.25;89.02;100035.63;125016;1092;64300;-79
2021/07/06 02:15:54;;;;;;;7.20;3.97;;;;;;;17.25;89.19;100043.67;125145;1092;64297;-79
2021/07/06 02:18:22;;;;;;;6.83;4.10;;;;;;;17.25;89.23;100035.63;125283;1093;64230;-78
2021/07/06 02:20:53;;;;;;;5.07;4.00;;;;;;;17.24;89.33;100034.83;125319;1092;64310;-79
2021/07/06 02:23:21;;;;;;;9.23;4.20;;;;;;;17.25;89.17;100032.95;125208;1093;64288;-78
2021/07/06 02:25:49;;;;;;;4.77;4.10;;;;;;;17.25;89.34;100038.31;125753;1093;64333;-80
2021/07/06 02:28:17;;;;;;;7.97;5.27;;;;;;;17.27;89.31;100046.94;126087;1093;64307;-78
2021/07/06 02:30:45;;;;;;;6.07;4.00;;;;;;;17.26;89.49;100040.77;125912;1093;64300;-79
2021/07/06 02:33:12;;;;;;;10.90;4.73;;;;;;;17.28;89.50;100038.67;125311;1093;64242;-79
2021/07/06 02:35:40;;;;;;;5.63;4.00;;;;;;;17.27;89.43;100037.02;125047;1092;64301;-78
2021/07/06 02:38:07;;;;;;;7.65;4.25;;;;;;;17.28;89.54;100044.03;124815;1093;64310;-78
2021/07/06 02:40:35;;;;;;;6.27;4.23;;;;;;;17.29;89.38;100042.16;125203;1093;64392;-78
2021/07/06 02:43:02;;;;;;;7.00;4.00;;;;;;;17.31;89.43;100042.73;125296;1093;64327;-78
2021/07/06 02:45:30;;;;;;;5.63;4.73;;;;;;;17.33;89.70;100029.91;125000;1092;64168;-78
2021/07/06 02:47:58;;;;;;;4.90;3.57;;;;;;;17.36;89.51;100034.80;125132;1092;64444;-77
2021/07/06 02:50:26;;;;;;;11.00;3.87;;;;;;;17.35;89.30;100027.81;124858;1093;64303;-80
2021/07/06 02:52:54;;;;;;;4.43;3.67;;;;;;;17.33;89.39;100035.27;125201;1093;64268;-78
2021/07/06 02:55:22;;;;;;;5.27;3.60;;;;;;;17.33;89.24;100035.27;124905;1093;64297;-79
2021/07/06 02:57:52;;;;;;;5.00;3.20;;;;;;;17.34;89.20;100044.97;125096;1092;64261;-79
2021/07/06 03:00:22;;;;;;;5.33;3.97;;;;;;;17.36;89.15;100032.11;125183;1093;64300;-79
2021/07/06 03:02:52;;;;;;;5.57;3.53;;;;;;;17.36;89.18;100029.43;125211;1092;64647;-78
2021/07/06 03:05:20;;;;;;;4.35;3.40;;;;;;;17.37;89.28;100033.75;125136;1093;64214;-79
2021/07/06 03:07:48;;;;;;;4.50;2.83;;;;;;;17.37;89.13;100043.67;125065;1093;64236;-79
2021/07/06 03:10:23;;;;;;;5.90;2.93;;;;;;;17.36;89.10;100034.80;125135;1093;64302;-79
2021/07/06 03:12:50;;;;;;;4.50;3.77;;;;;;;17.35;89.38;100037.73;125108;1093;64402;-79
2021/07/06 03:15:20;;;;;;;4.35;3.40;;;;;;;17.32;89.16;100036.34;125056;1093;64382;-79
2021/07/06 03:17:47;;;;;;;5.03;3.50;;;;;;;17.31;89.06;100046.23;125072;1091;64304;-78
2021/07/06 03:20:19;;;;;;;4.93;3.10;;;;;;;17.30;89.04;100038.44;124826;1093;64387;-78
2021/07/06 03:22:47;;;;;;;3.17;2.20;;;;;;;17.28;89.29;100044.03;125084;1093;64304;-78
2021/07/06 03:25:17;;;;;;;5.17;2.70;;;;;;;17.26;89.16;100037.28;125104;1093;64338;-80
2021/07/06 03:27:44;;;;;;;4.83;2.93;;;;;;;17.26;89.12;100056.85;126530;1093;64284;-78
2021/07/06 03:30:18;;;;;;;3.07;2.57;;;;;;;17.28;89.22;100056.63;125075;1093;64271;-78
2021/07/06 03:32:46;;;;;;;5.33;3.73;;;;;;;17.29;89.19;100052.88;125038;1093;64200;-78
2021/07/06 03:35:14;;;;;;;4.17;3.07;;;;;;;17.30;89.09;100044.61;124900;1092;64307;-77
2021/07/06 03:37:41;;;;;;;5.00;3.50;;;;;;;17.32;89.13;100036.34;124893;1093;64342;-77
2021/07/06 03:40:10;;;;;;;4.00;3.40;;;;;;;17.34;89.14;100036.92;124919;1091;64289;-78
2021/07/06 03:42:39;;;;;;;4.57;2.80;;;;;;;17.38;89.02;100039.92;124659;1093;64349;-77
2021/07/06 03:45:09;;;;;;;3.53;2.97;;;;;;;17.41;88.88;100031.43;124938;1093;64254;-78
2021/07/06 03:47:36;;;;;;;4.97;3.13;;;;;;;17.43;88.77;100032.81;124967;1093;64261;-77
2021/07/06 03:50:06;;;;;;;4.27;2.97;;;;;;;17.45;88.94;100038.76;124734;1093;64348;-77
2021/07/06 03:52:33;;;;;;;5.10;2.60;;;;;;;17.48;88.67;100032.91;125039;1092;64288;-78
2021/07/06 03:55:00;;;;;;;9.73;3.33;;;;;;;17.50;88.50;100033.48;124798;1093;64290;-79
2021/07/06 03:57:31;;;;;;;8.13;3.03;;;;;;;17.55;88.36;100034.64;124979;1092;64307;-79
2021/07/06 04:00:00;;;;;;;5.75;3.35;;;;;;;17.57;88.33;100029.86;124968;1092;64285;-79
2021/07/06 04:02:27;;;;;;;2.70;2.23;;;;;;;17.57;88.42;100035.23;125183;1093;64355;-79
2021/07/06 04:04:54;;;;;;;3.63;2.60;;;;;;;17.58;88.42;100039.55;125033;1093;64284;-79
2021/07/06 04:07:21;;;;;;;6.03;3.67;;;;;;;17.59;88.31;100041.17;124992;1093;64272;-79
2021/07/06 04:09:48;;;;;;;3.23;2.63;;;;;;;17.58;88.38;100035.00;125018;1092;64326;-80
2021/07/06 04:12:16;;;;;;;4.00;2.57;;;;;;;17.59;88.49;100033.13;124811;1092;64342;-78
2021/07/06 04:14:43;;;;;;;3.23;2.10;;;;;;;17.60;88.43;100034.77;124996;1093;64381;-79
2021/07/06 04:17:10;;;;;;;2.67;2.00;;;;;;;17.60;88.45;100024.04;124920;1093;64285;-78
2021/07/06 04:19:37;;;;;;;3.13;2.23;;;;;;;17.61;88.42;100026.46;124948;1093;64310;-78
2021/07/06 04:22:05;;;;;;;2.97;2.67;;;;;;;17.67;88.41;100032.75;125018;1093;64307;-78
2021/07/06 04:24:33;;;;;;;4.37;2.43;;;;;;;17.70;88.36;100032.27;124777;1093;64205;-78
2021/07/06 04:27:02;;;;;;;5.27;2.47;;;;;;;17.73;88.25;100019.20;125050;1093;64351;-79
2021/07/06 04:29:29;;;;;;;3.77;2.50;;;;;;;17.77;88.22;100019.55;125023;1093;64282;-79
2021/07/06 04:31:57;;;;;;;3.23;1.93;;;;;;;17.84;88.13;100030.97;124977;1093;64211;-78
2021/07/06 04:34:24;;;;;;;3.63;2.40;;;;;;;17.90;87.86;100038.06;124958;1093;64288;-78
2021/07/06 04:36:51;;;;;;;4.00;2.27;;;;;;;17.98;87.83;100025.31;124980;1093;64387;-77
2021/07/06 04:39:18;;;;;;;2.83;2.33;;;;;;;18.06;87.52;100035.66;124958;1093;64433;-78
2021/07/06 04:41:46;;;;;;;3.97;1.97;;;;;;;18.13;87.19;100025.61;124938;1093;64173;-78
2021/07/06 04:44:14;;;;;;;3.13;1.97;;;;;;;18.21;87.00;100033.28;125030;1093;64307;-78
2021/07/06 04:46:42;;;;;;;2.63;2.20;;;;;;;18.31;86.92;100036.11;125214;1093;65307;-78
2021/07/06 04:49:10;;;;;;;7.10;2.13;;;;;;;18.42;86.54;100036.30;124852;1093;64278;-78
2021/07/06 04:51:37;;;;;;;5.47;2.03;;;;;;;18.54;85.87;100039.73;124917;1092;64380;-79
2021/07/06 04:54:04;;;;;;;2.83;2.30;;;;;;;18.65;85.61;100044.20;124906;1092;64298;-78
2021/07/06 04:56:33;;;;;;;4.43;1.90;;;;;;;18.75;84.26;100041.67;125000;1093;64287;-79
2021/07/06 04:59:00;;;;;;;2.57;1.70;;;;;;;18.89;84.15;100041.37;125396;1093;64208;-78
2021/07/06 05:01:27;;;;;;;2.10;1.67;;;;;;;19.00;83.36;100032.41;125004;1092;64304;-78
2021/07/06 05:03:56;;;;;;;6.85;2.00;;;;;;;19.13;83.20;100032.05;124910;1093;64402;-78
2021/07/06 05:06:23;;;;;;;3.07;1.80;;;;;;;19.28;82.47;100033.33;125028;1093;64284;-80
2021/07/06 05:08:50;;;;;;;2.77;2.20;;;;;;;19.40;82.48;100019.75;125017;1092;64396;-75
2021/07/06 05:11:17;;;;;;;5.30;1.90;;;;;;;19.50;81.38;100018.00;124719;1093;64349;-74
2021/07/06 05:13:44;;;;;;;3.53;1.80;;;;;;;19.56;81.07;100011.62;124890;1093;64294;-74
2021/07/06 05:16:12;;;;;;;2.63;2.00;;;;;;;19.63;80.75;100014.11;124889;1093;64426;-76
2021/07/06 05:18:39;;;;;;;2.43;1.43;;;;;;;19.67;80.06;100017.13;124905;1093;64310;-74
2021/07/06 05:21:06;;;;;;;2.50;1.60;;;;;;;19.73;79.54;100016.15;124893;1093;64386;-72
2021/07/06 05:23:34;;;;;;;3.80;2.63;;;;;;;19.72;79.26;100015.34;124880;1093;64303;-74
2021/07/06 05:26:01;;;;;;;3.23;1.60;;;;;;;19.69;79.78;100006.92;124859;1093;64307;-73
2021/07/06 05:28:29;;;;;;;1.70;1.37;;;;;;;19.72;79.50;100006.44;124863;1093;64393;-73
2021/07/06 05:30:56;;;;;;;3.80;1.43;;;;;;;19.77;79.03;100003.82;124834;1093;64230;-73
2021/07/06 05:33:24;;;;;;;3.27;1.37;;;;;;;19.84;78.97;100001.73;124848;1093;64307;-73
2021/07/06 05:35:51;;;;;;;4.07;1.60;;;;;;;19.91;78.56;100006.91;124871;1093;64234;-73
2021/07/06 05:38:18;;;;;;;2.80;1.40;;;;;;;20.01;78.53;100009.71;124900;1093;64361;-73
2021/07/06 05:41:02;;;;;;;2.07;1.17;;;;;;;20.11;78.11;100009.01;124892;1093;64413;-74
2021/07/06 05:43:30;;;;;;;3.50;1.10;;;;;;;20.21;78.81;100014.50;125275;1093;65083;-74
2021/07/06 05:45:57;;;;;;;4.07;1.10;;;;;;;20.30;77.18;100012.95;124923;1093;64285;-75
2021/07/06 05:48:25;;;;;;;1.80;1.10;;;;;;;20.36;76.93;100019.20;124952;1092;64291;-74
2021/07/06 05:50:52;;;;;;;1.67;1.07;;;;;;;20.44;76.96;100012.52;124897;1093;64233;-72
2021/07/06 05:53:20;;;;;;;2.87;1.20;;;;;;;20.53;76.55;100016.38;124857;1092;64374;-74
2021/07/06 05:55:46;;;;;;;3.33;1.50;;;;;;;20.62;76.82;100008.66;125070;1093;64465;-74
2021/07/06 05:58:14;;;;;;;2.03;1.13;;;;;;;20.69;76.03;100012.74;124830;1093;64591;-75
2021/07/06 06:00:42;;;;;;;1.67;1.10;;;;;;;20.77;76.08;100014.96;124882;1091;64281;-74
2021/07/06 06:03:12;;;;;;;3.20;1.40;;;;;;;20.90;76.07;100005.61;124932;1091;64240;-74
2021/07/06 06:05:40;;;;;;;1.37;0.77;;;;;;;21.03;74.50;100004.33;124827;1093;64745;-74
2021/07/06 06:08:09;;;;;;;6.53;1.07;;;;;;;21.13;74.29;100008.98;124849;1093;64326;-76
2021/07/06 06:10:36;;;;;;;2.40;0.83;;;;;;;21.22;73.25;100006.59;124818;1091;64287;-75
2021/07/06 06:13:03;;;;;;;2.30;0.80;;;;;;;21.36;73.21;100007.75;124885;1093;64199;-75
2021/07/06 06:15:31;;;;;;;3.80;1.00;;;;;;;21.49;71.75;100012.69;124624;1093;64352;-75
2021/07/06 06:17:59;;;;;;;1.23;0.80;;;;;;;21.62;70.24;99999.78;124840;1093;64387;-76
2021/07/06 06:20:26;;;;;;;1.00;0.60;;;;;;;21.73;69.54;100006.82;125045;1092;64390;-75
2021/07/06 06:22:53;;;;;;;1.83;0.80;;;;;;;21.86;70.86;100000.91;124823;1093;64316;-75
2021/07/06 06:25:20;;;;;;;2.63;0.90;;;;;;;21.91;70.39;99994.70;124860;1093;64268;-76
2021/07/06 06:27:47;;;;;;;1.60;1.00;;;;;;;21.98;69.55;99993.38;124870;1092;65030;-77
2021/07/06 06:30:16;;;;;;;2.27;0.70;;;;;;;22.07;68.98;99995.55;124881;1093;64355;-76
2021/07/06 06:32:43;;;;;;;1.73;0.80;;;;;;;22.17;69.53;99990.16;125074;1093;64377;-76
2021/07/06 06:35:12;;;;;;;1.30;0.60;;;;;;;22.22;68.40;100009.06;124923;1093;64285;-73
2021/07/06 06:37:39;;;;;;;1.40;0.80;;;;;;;22.20;67.12;100003.92;125240;1093;64288;-73
2021/07/06 06:40:08;;;;;;;1.30;0.60;;;;;;;22.23;68.42;99999.92;124858;1093;64290;-73
2021/07/06 06:42:37;;;;;;;7.13;1.30;;;;;;;22.29;67.72;99998.85;125050;1093;64211;-73
2021/07/06 06:45:09;;;;;;;1.67;0.50;;;;;;;22.34;67.63;100000.73;124884;1093;64281;-74
2021/07/06 06:47:37;;;;;;;1.67;0.97;;;;;;;22.48;67.15;99998.29;125293;1092;64282;-73
2021/07/06 06:50:06;;;;;;;1.50;0.80;;;;;;;22.68;67.24;99995.58;124877;1092;64332;-73
2021/07/06 06:52:33;;;;;;;1.57;0.60;;;;;;;22.82;66.23;99989.59;124698;1093;64291;-75
2021/07/06 06:55:01;;;;;;;1.43;0.57;;;;;;;;;;124874;1093;64349;-73
2021/07/06 06:57:28;;;;;;;2.33;0.90;;;;;;;22.95;63.85;99991.72;124858;1093;64250;-73
2021/07/06 06:59:56;;;;;;;1.03;0.60;;;;;;;22.92;63.92;99984.17;124888;1093;64234;-73
2021/07/06 07:02:28;;;;;;;1.63;0.67;;;;;;;22.78;64.29;99984.75;124885;1093;64243;-78
2021/07/06 07:04:56;;;;;;;2.80;0.70;;;;;;;22.69;64.13;99980.96;124940;1092;64310;-76
2021/07/06 07:07:24;;;;;;;1.27;0.80;;;;;;;22.69;64.90;99975.55;124984;1093;64435;-76
2021/07/06 07:09:52;;;;;;;3.80;0.90;;;;;;;22.83;65.42;99977.71;124959;1093;64301;-75
2021/07/06 07:12:20;;;;;;;1.47;0.77;;;;;;;22.97;64.39;99970.63;124910;1093;64300;-78
2021/07/06 07:14:47;;;;;;;3.10;0.87;;;;;;;23.17;64.53;99967.09;125139;1093;64429;-75
2021/07/06 07:17:14;;;;;;;1.57;0.60;;;;;;;23.38;63.94;99986.76;124738;1092;64361;-75
2021/07/06 07:19:42;;;;;;;4.00;0.90;;;;;;;23.45;63.54;99991.87;124635;1093;64374;-76
2021/07/06 07:22:09;;;;;;;2.43;0.90;;;;;;;23.46;64.21;99986.19;124875;1093;64250;-73
2021/07/06 07:24:37;;;;;;;3.63;0.80;;;;;;;23.41;63.88;99988.90;124876;1092;64301;-75
2021/07/06 07:27:05;;;;;;;7.03;1.20;;;;;;;23.37;63.42;99987.83;124910;1093;65435;-75
2021/07/06 07:29:32;;;;;;;3.50;0.63;;;;;;;23.36;63.11;99988.94;125079;1093;64339;-74
2021/07/06 07:32:00;;;;;;;2.40;0.60;;;;;;;23.39;64.09;100000.00;125152;1092;64427;-73
2021/07/06 07:34:28;;;;;;;3.30;0.93;;;;;;;23.35;64.05;99990.00;125021;1093;64287;-76
2021/07/06 07:36:55;;;;;;;1.93;0.60;;;;;;;23.33;64.36;99989.47;124926;1093;64331;-74
2021/07/06 07:39:22;;;;;;;1.50;0.80;;;;;;;23.33;64.60;99982.16;124882;1093;64282;-73
2021/07/06 07:41:50;;;;;;;1.80;0.70;;;;;;;23.35;64.29;99987.30;125009;1093;64281;-73
2021/07/06 07:44:17;;;;;;;1.30;0.60;;;;;;;23.38;64.43;99984.86;124818;1093;64374;-74
2021/07/06 07:46:45;;;;;;;4.63;0.90;;;;;;;23.54;64.54;99985.58;125248;1093;64287;-75
2021/07/06 07:49:12;;;;;;;3.60;0.80;;;;;;;23.85;64.68;99977.33;124896;1093;64325;-75
2021/07/06 07:51:39;;;;;;;2.97;0.80;;;;;;;24.06;62.52;99983.41;124880;1093;64406;-74
2021/07/06 07:54:06;;;;;;;1.55;0.70;;;;;;;24.15;61.59;99972.78;124958;1092;64802;-74
2021/07/06 07:56:33;;;;;;;3.87;0.77;;;;;;;24.29;60.98;99981.89;124858;1093;64307;-73
2021/07/06 07:59:00;;;;;;;2.40;0.70;;;;;;;24.39;61.35;99983.69;124893;1093;64329;-75
2021/07/06 08:01:27;;;;;;;1.40;0.70;;;;;;;24.40;60.25;99975.28;124833;1092;64299;-74
2021/07/06 08:03:54;;;;;;;1.07;0.70;;;;;;;24.39;59.26;99986.40;124931;1093;64307;-73
2021/07/06 08:06:21;;;;;;;2.53;0.80;;;;;;;24.49;60.11;99989.05;124705;1093;64281;-75
2021/07/06 08:08:48;;;;;;;2.77;0.67;;;;;;;24.65;60.05;99986.19;124877;1091;64463;-72
2021/07/06 08:11:15;;;;;;;2.10;0.80;;;;;;;24.73;58.70;99994.52;124909;1093;64252;-75
2021/07/06 08:13:43;;;;;;;2.65;0.75;;;;;;;24.68;58.09;99986.44;124889;1092;64812;-73
2021/07/06 08:16:10;;;;;;;2.47;0.60;;;;;;;24.68;58.22;99986.44;124833;1092;64285;-74
2021/07/06 08:18:38;;;;;;;1.50;0.70;;;;;;;24.70;57.95;99992.39;124861;1093;64384;-74
2021/07/06 08:21:05;;;;;;;1.75;0.70;;;;;;;24.72;57.25;99982.06;124834;1093;64355;-74
2021/07/06 08:23:32;;;;;;;2.30;1.13;;;;;;;24.59;57.00;99999.02;124905;1093;64965;-76
2021/07/06 08:25:59;;;;;;;1.67;0.73;;;;;;;24.46;58.69;99994.20;124778;1093;64303;-79
2021/07/06 08:28:27;;;;;;;3.03;0.70;;;;;;;24.35;58.51;99999.70;124862;1093;65454;-75
2021/07/06 08:30:54;;;;;;;1.80;0.90;;;;;;;24.31;59.10;99997.84;124973;1093;64285;-73
2021/07/06 08:33:22;;;;;;;2.40;0.80;;;;;;;24.28;59.14;99999.23;124878;1093;64367;-73
2021/07/06 08:35:49;;;;;;;1.67;0.83;;;;;;;24.25;58.64;100004.39;124891;1091;64345;-72
2021/07/06 08:38:17;;;;;;;1.83;0.90;;;;;;;24.22;58.68;100012.00;124934;1093;64249;-73
2021/07/06 08:40:49;;;;;;;1.97;0.80;;;;;;;24.20;57.97;100016.09;125084;1093;64288;-73
2021/07/06 08:43:17;;;;;;;1.47;0.60;;;;;;;24.21;58.90;100015.81;125014;1092;64216;-72
2021/07/06 08:45:45;;;;;;;1.30;0.70;;;;;;;24.20;58.36;100018.80;125007;1093;64369;-73
2021/07/06 08:48:12;;;;;;;2.00;0.90;;;;;;;24.26;59.33;100023.09;124861;1093;64364;-73
2021/07/06 08:50:40;;;;;;;4.20;0.83;;;;;;;24.27;59.36;100027.44;125019;1093;64285;-73
2021/07/06 08:53:07;;;;;;;1.80;1.05;;;;;;;24.24;59.39;100030.70;124865;1093;64277;-73
2021/07/06 08:55:34;;;;;;;1.57;0.93;;;;;;;24.31;59.68;100033.91;124842;1092;64307;-74
2021/07/06 08:58:01;;;;;;;1.47;0.80;;;;;;;24.37;59.55;100030.05;124779;1092;64255;-74
2021/07/06 09:00:31;;;;;;;3.53;0.60;;;;;;;24.39;60.08;100033.28;124793;1093;64288;-73
2021/07/06 09:03:09;;;;;;;4.57;0.70;;;;;;;24.43;59.48;100023.49;124853;1093;64262;-74
2021/07/06 09:05:37;;;;;;;2.57;0.70;;;;;;;24.48;59.11;100035.39;124844;1093;64318;-74
2021/07/06 09:08:06;;;;;;;2.93;0.80;;;;;;;24.50;59.43;100033.23;124936;1093;64211;-74
2021/07/06 09:10:36;;;;;;;1.07;0.50;;;;;;;24.48;59.73;100025.38;124858;1093;64433;-74
2021/07/06 09:13:26;;;;;;;2.13;0.80;;;;;;;24.40;59.48;100032.20;124924;1093;64355;-76
2021/07/06 09:15:55;;;;;;;1.13;0.77;;;;;;;24.33;60.19;100029.02;125049;1093;64361;-74
2021/07/06 09:18:28;;;;;;;0.90;0.50;;;;;;;24.30;60.50;100037.70;124994;1093;64399;-74
2021/07/06 09:21:04;;;;;;;2.20;0.80;;;;;;;24.27;60.60;100034.73;124767;1093;64249;-73
2021/07/06 09:23:34;;;;;;;2.83;0.60;;;;;;;24.27;60.84;100035.57;124853;1093;64777;-77
2021/07/06 09:26:09;;;;;;;2.27;1.10;;;;;;;24.24;61.05;100036.11;125193;1093;64284;-73
2021/07/06 09:28:47;;;;;;;1.50;0.70;;;;;;;24.30;60.68;100032.28;124867;1093;64261;-74
2021/07/06 09:31:18;;;;;;;2.80;0.93;;;;;;;24.38;60.74;100037.10;124853;1093;64263;-73
2021/07/06 09:33:54;;;;;;;1.33;0.77;;;;;;;24.43;60.90;100039.76;124854;1093;64387;-73
2021/07/06 09:36:36;;;;;;;1.55;0.85;;;;;;;24.54;61.34;100037.80;124960;1092;64444;-73
2021/07/06 09:39:11;;;;;;;2.40;1.20;;;;;;;24.72;60.74;100047.16;124897;1093;64224;-73
2021/07/06 09:41:40;;;;;;;1.73;0.70;;;;;;;24.89;60.16;100040.50;124895;1093;64301;-73
2021/07/06 09:44:16;;;;;;;3.57;1.10;;;;;;;25.07;60.48;100047.89;125043;1092;64281;-73
2021/07/06 09:46:52;;;;;;;1.93;0.80;;;;;;;25.15;58.21;100043.75;125197;1092;64230;-73
2021/07/06 09:49:22;;;;;;;2.05;0.70;;;;;;;25.16;56.10;100040.76;124947;1092;64333;-73
2021/07/06 09:51:58;;;;;;;1.47;0.70;;;;;;;25.16;56.24;100040.76;124947;1093;64477;-73
2021/07/06 09:54:26;;;;;;;3.27;0.70;;;;;;;25.06;53.96;100031.92;125036;1092;64293;-75
2021/07/06 09:57:06;;;;;;;1.23;0.77;;;;;;;25.00;54.20;100039.30;124860;1092;64223;-76
2021/07/06 09:59:34;;;;;;;1.40;0.70;;;;;;;24.92;54.99;100039.91;124833;1093;64315;-75
2021/07/06 10:02:04;;;;;;;4.73;0.73;;;;;;;24.77;54.90;100049.01;124886;1093;64385;-76
2021/07/06 10:04:35;;;;;;;1.03;0.80;;;;;;;24.61;55.22;100042.92;124942;1093;64294;-76
2021/07/06 10:07:05;;;;;;;2.47;0.97;;;;;;;24.38;56.50;100064.21;124748;1093;64219;-73
2021/07/06 10:09:32;;;;;;;1.90;0.90;;;;;;;24.16;56.99;100056.52;124988;1092;64301;-73
2021/07/06 10:12:00;;;;;;;2.60;1.00;;;;;;;23.99;57.29;100061.47;124890;1093;64311;-73
2021/07/06 10:14:27;;;;;;;4.40;0.80;;;;;;;23.78;58.66;100055.34;125056;1092;64301;-74
2021/07/06 10:16:54;;;;;;;2.50;0.80;;;;;;;23.60;59.07;100054.86;125285;1093;64290;-74
2021/07/06 10:19:22;;;;;;;3.83;1.47;;;;;;;23.43;59.11;100059.81;124958;1093;64282;-75
2021/07/06 10:21:50;;;;;;;6.17;1.10;;;;;;;23.29;60.21;100070.42;125164;1093;64329;-74
2021/07/06 10:24:19;;;;;;;1.30;0.80;;;;;;;23.12;61.06;100075.31;125230;1093;65215;-74
2021/07/06 10:26:48;;;;;;;3.73;0.87;;;;;;;22.92;63.24;100081.54;124977;1093;64529;-74
2021/07/06 10:29:30;;;;;;;1.97;1.00;;;;;;;22.73;65.22;100086.69;125112;1092;64349;-74
2021/07/06 10:31:58;;;;;;;2.57;1.23;;;;;;;22.52;67.10;100102.08;125236;1093;64288;-74
2021/07/06 10:34:26;;;;;;;2.63;0.80;;;;;;;22.32;68.32;100111.78;124892;1093;64284;-74
2021/07/06 10:36:53;;;;;;;0.90;0.50;;;;;;;22.03;69.72;100113.30;125113;1093;64291;-74
2021/07/06 10:39:44;;;;;;;1.80;0.90;;;;;;;21.82;71.59;100099.71;124895;1093;64455;-74
2021/07/06 10:42:11;;;;;;;1.97;1.10;;;;;;;21.55;72.57;100106.09;125164;1093;64285;-74
2021/07/06 10:44:40;;;;;;;1.87;1.10;;;;;;;21.36;73.52;100112.97;124886;1093;64400;-74
2021/07/06 10:47:37;;;;;;;1.93;0.93;;;;;;;21.17;75.85;100107.98;124928;1093;64282;-73
2021/07/06 10:50:24;;;;;;;3.30;1.00;;;;;;;21.03;75.84;100104.11;124940;1092;64230;-73
2021/07/06 10:53:14;;;;;;;2.90;1.00;;;;;;;20.90;76.76;100124.23;124878;1091;64380;-74
2021/07/06 10:55:42;;;;;;;1.70;1.20;;;;;;;20.79;77.79;100127.92;124896;1092;64284;-73
2021/07/06 10:58:10;;;;;;;1.40;0.93;;;;;;;20.70;78.58;100119.50;125141;1093;64326;-74
2021/07/06 11:00:43;;;;;;;2.67;1.10;;;;;;;20.61;79.63;100126.40;124889;1093;64353;-73
2021/07/06 11:03:15;;;;;;;2.83;1.10;;;;;;;20.51;80.72;100131.69;125071;1093;64300;-73
2021/07/06 11:05:43;;;;;;;3.90;1.17;;;;;;;20.42;81.59;100127.80;125082;1093;64317;-73
2021/07/06 11:08:48;;;;;;;2.57;1.27;;;;;;;20.35;81.77;100134.20;125125;1093;64307;-74
2021/07/06 11:11:35;;;;;;;;;;;;;;;20.25;82.67;100133.28;124671;1095;64773;-74
2021/07/06 11:14:22;;;;;;;2.83;1.30;;;;;;;20.14;83.69;100138.55;124624;1095;64611;-74
2021/07/06 11:16:56;;;;;;;5.27;1.17;;;;;;;20.06;85.31;100105.88;124513;1093;64291;-73
2021/07/06 11:19:37;;;;;;;3.80;1.30;;;;;;;20.00;84.95;100051.17;124949;1093;64378;-73
2021/07/06 11:22:16;;;;;;;2.87;0.90;;;;;;;19.93;86.12;100045.16;124918;1093;64296;-73
2021/07/06 11:24:47;;;;;;;3.90;1.60;;;;;;;19.89;85.92;100042.17;124895;1093;64288;-74
2021/07/06 11:27:35;;;;;;;8.83;1.40;;;;;;;19.88;87.10;100034.34;124862;1092;64307;-74